Time;durP1;ratioP1;P1;durP2;ratioP2;P2;SDS_P1;SDS_P2;PMS_P1;PMS_P2;Temp;Humidity;BMP_temperature;BMP_pressure;BME280_temperature;BME280_humidity;BME280_pressure;Samples;Min_cycle;Max_cycle;Signal;HPM_P1;HPM_P2
2023/01/13 00:00:44;;;;;;;;;0.00;0.00;;;;;12.39;100.00;100906.38;5075082;27;46564;-74
2023/01/13 00:03:09;;;;;;;;;0.00;0.00;;;;;12.42;100.00;100889.69;5092359;27;45224;-75
2023/01/13 00:05:36;;;;;;;;;0.00;0.00;;;;;12.40;100.00;100886.28;5074097;27;45799;-75
2023/01/13 00:08:04;;;;;;;;;0.00;0.00;;;;;12.37;100.00;100875.69;5100557;27;45357;-75
2023/01/13 00:10:29;;;;;;;;;0.00;0.00;;;;;12.46;100.00;100882.94;5089578;27;45361;-75
2023/01/13 00:12:55;;;;;;;;;0.00;0.00;;;;;12.51;100.00;100871.53;5101801;27;45510;-75
2023/01/13 00:15:20;;;;;;;;;1.00;0.00;;;;;12.65;100.00;100870.97;5073447;27;45435;-75
2023/01/13 00:17:47;;;;;;;;;0.00;0.00;;;;;12.69;100.00;100858.75;5081581;27;45321;-75
2023/01/13 00:20:13;;;;;;;;;2.00;0.00;;;;;12.70;100.00;100854.16;5079412;27;47461;-76
2023/01/13 00:22:38;;;;;;;;;0.00;0.00;;;;;12.73;100.00;100851.09;5098520;27;45246;-75
2023/01/13 00:25:05;;;;;;;;;3.00;0.00;;;;;12.79;100.00;100869.53;5090899;27;45314;-76
2023/01/13 00:27:31;;;;;;;;;0.00;0.00;;;;;12.80;100.00;100868.53;5095678;27;45327;-75
2023/01/13 00:29:56;;;;;;;;;0.00;0.00;;;;;12.80;100.00;100853.03;5088812;27;45981;-76
2023/01/13 00:32:21;;;;;;;;;1.00;0.00;;;;;12.86;100.00;100859.69;5076911;27;45242;-76
2023/01/13 00:34:47;;;;;;;;;0.00;0.00;;;;;12.93;100.00;100855.31;5099086;27;45250;-76
2023/01/13 00:37:13;;;;;;;;;0.00;0.00;;;;;12.95;100.00;100852.44;5100705;27;45148;-75
2023/01/13 00:39:39;;;;;;;;;0.00;0.00;;;;;12.87;100.00;100855.97;5091059;27;45665;-76
2023/01/13 00:44:48;;;;;;;;;0.00;0.00;;;;;12.84;100.00;100854.44;5100568;27;45157;-76
2023/01/13 00:47:14;;;;;;;;;0.00;0.00;;;;;12.77;100.00;100855.22;5078184;27;45373;-76
2023/01/13 00:49:40;;;;;;;;;0.00;0.00;;;;;12.80;100.00;100846.72;5074568;27;46673;-76
2023/01/13 00:52:06;;;;;;;;;0.00;0.00;;;;;12.90;100.00;100844.75;5085693;27;45485;-76
2023/01/13 00:54:31;;;;;;;;;0.00;0.00;;;;;12.93;100.00;100833.50;5096018;27;45329;-76
2023/01/13 00:56:56;;;;;;;;;0.00;0.00;;;;;12.85;100.00;100828.03;5103892;27;45488;-75
2023/01/13 00:59:22;;;;;;;;;0.00;0.00;;;;;12.92;100.00;100842.72;5100207;27;46090;-75
2023/01/13 01:01:47;;;;;;;;;0.00;0.00;;;;;12.75;100.00;100841.75;5086740;27;46001;-76
2023/01/13 01:04:13;;;;;;;;;2.00;1.00;;;;;12.70;100.00;100838.66;5099948;27;46033;-75
2023/01/13 01:06:38;;;;;;;;;0.00;0.00;;;;;12.51;100.00;100837.97;5086774;27;45440;-75
2023/01/13 01:09:04;;;;;;;;;0.00;0.00;;;;;12.67;100.00;100844.41;5084241;27;47262;-75
2023/01/13 01:11:31;;;;;;;;;0.00;0.00;;;;;12.77;100.00;100849.78;5080567;27;45346;-75
2023/01/13 01:13:59;;;;;;;;;0.00;0.00;;;;;12.80;100.00;100852.16;5084531;28;45394;-75
2023/01/13 01:16:27;;;;;;;;;1.33;0.00;;;;;12.84;100.00;100851.69;5098760;27;45310;-76
2023/01/13 01:18:54;;;;;;;;;0.00;0.00;;;;;12.81;100.00;100843.84;5080996;27;48483;-76
2023/01/13 01:21:21;;;;;;;;;1.00;1.00;;;;;12.81;100.00;100851.16;5103030;27;45404;-76
2023/01/13 01:23:47;;;;;;;;;3.00;0.00;;;;;12.74;100.00;100839.19;5086086;27;45285;-76
2023/01/13 01:26:22;;;;;;;;;1.67;0.67;;;;;12.82;100.00;100841.97;5085345;27;45557;-74
2023/01/13 01:28:48;;;;;;;;;2.00;1.00;;;;;12.87;100.00;100820.50;5091756;27;46392;-74
2023/01/13 01:31:26;;;;;;;;;3.00;0.00;;;;;12.86;100.00;100826.97;5097743;27;45730;-75
2023/01/13 01:33:53;;;;;;;;;0.00;0.00;;;;;12.84;100.00;100837.22;5093286;27;45412;-76
2023/01/13 01:36:20;;;;;;;;;0.00;0.00;;;;;12.68;100.00;100834.38;5086706;27;45614;-75
2023/01/13 01:38:46;;;;;;;;;0.33;0.33;;;;;12.69;100.00;100841.53;5093520;27;46518;-76
2023/01/13 01:41:19;;;;;;;;;0.00;0.00;;;;;12.74;100.00;100839.19;5077157;28;45505;-76
2023/01/13 01:44:02;;;;;;;;;0.00;0.00;;;;;12.68;100.00;100831.66;5090222;27;45549;-73
2023/01/13 01:46:32;;;;;;;;;1.00;1.00;;;;;12.63;100.00;100844.91;5083388;27;45556;-73
2023/01/13 01:49:09;;;;;;;;;3.00;3.00;;;;;12.61;100.00;100844.19;5082576;27;47084;-73
2023/01/13 01:51:44;;;;;;;;;0.33;0.33;;;;;12.55;100.00;100831.22;5086097;27;45458;-73
2023/01/13 01:54:14;;;;;;;;;2.00;0.00;;;;;12.41;100.00;100833.50;5086716;27;45545;-73
2023/01/13 01:56:42;;;;;;;;;0.33;0.00;;;;;12.27;100.00;100834.03;5083572;27;45788;-73
2023/01/13 01:59:07;;;;;;;;;0.00;0.00;;;;;12.25;100.00;100825.19;5082966;27;46881;-73
2023/01/13 02:01:33;;;;;;;;;2.00;0.00;;;;;12.09;100.00;100833.22;5100537;27;45408;-73
2023/01/13 02:04:08;;;;;;;;;4.00;2.33;;;;;12.17;100.00;100846.06;5086331;27;45381;-73
2023/01/13 02:06:33;;;;;;;;;1.00;0.00;;;;;12.17;100.00;100852.34;5086389;27;45384;-76
2023/01/13 02:08:59;;;;;;;;;1.00;0.33;;;;;12.04;100.00;100849.19;5098056;27;46229;-76
2023/01/13 02:14:15;;;;;;;;;2.00;2.00;;;;;11.99;100.00;100856.94;5096394;27;45238;-76
2023/01/13 02:16:50;;;;;;;;;1.67;1.00;;;;;11.91;100.00;100851.41;5086344;27;45416;-75
2023/01/13 02:19:42;;;;;;;;;1.67;1.33;;;;;12.03;100.00;100858.34;5099288;27;45440;-75
2023/01/13 02:22:20;;;;;;;;;1.00;0.00;;;;;11.88;100.00;100868.91;5078067;27;45537;-75
2023/01/13 02:25:13;;;;;;;;;1.67;0.00;;;;;11.99;100.00;100862.38;5099561;27;45458;-75
2023/01/13 02:28:07;;;;;;;;;0.00;0.00;;;;;11.81;100.00;100867.81;5098674;27;45314;-75
2023/01/13 02:33:37;;;;;;;;;2.33;0.00;;;;;11.67;100.00;100861.00;5096964;27;45472;-75
2023/01/13 02:36:05;;;;;;;;;2.67;1.00;;;;;11.74;100.00;100857.66;5082205;27;45495;-76
2023/01/13 02:38:37;;;;;;;;;1.33;0.00;;;;;11.74;100.00;100857.66;5082547;27;45543;-76
2023/01/13 02:44:05;;;;;;;;;0.00;0.00;;;;;11.57;100.00;100865.63;5092103;27;45250;-75
2023/01/13 02:46:38;;;;;;;;;2.33;0.00;;;;;11.60;100.00;100865.34;5099201;27;45345;-75
2023/01/13 02:49:10;;;;;;;;;2.00;1.00;;;;;11.59;100.00;100869.06;5092604;27;45247;-75
2023/01/13 02:51:37;;;;;;;;;0.00;0.00;;;;;11.53;100.00;100868.81;5096627;27;47265;-75
2023/01/13 02:54:08;;;;;;;;;3.00;0.00;;;;;11.58;100.00;100878.25;5071873;28;45478;-75
2023/01/13 02:56:38;;;;;;;;;1.00;1.00;;;;;11.44;100.00;100873.31;5102419;27;45410;-75
2023/01/13 02:59:05;;;;;;;;;1.67;1.67;;;;;11.51;100.00;100885.28;5090528;27;45549;-75
2023/01/13 03:01:30;;;;;;;;;0.00;0.00;;;;;11.58;100.00;100899.16;5084299;27;48455;-75
2023/01/13 03:03:56;;;;;;;;;2.00;0.00;;;;;11.61;100.00;100890.69;5103894;27;45379;-75
2023/01/13 03:06:28;;;;;;;;;1.00;1.00;;;;;11.60;100.00;100887.13;5082111;28;45493;-75
2023/01/13 03:09:07;;;;;;;;;0.00;0.00;;;;;11.65;100.00;100890.22;5098112;27;45447;-75
2023/01/13 03:11:45;;;;;;;;;1.00;1.00;;;;;11.65;100.00;100900.25;5076283;27;48504;-75
2023/01/13 03:14:28;;;;;;;;;0.33;0.33;;;;;11.54;100.00;100889.59;5083945;27;45302;-75
2023/01/13 03:17:15;;;;;;;;;3.33;1.67;;;;;11.78;100.00;100899.91;5084793;27;45554;-75
2023/01/13 03:19:53;;;;;;;;;0.00;0.00;;;;;11.87;100.00;100899.00;5091880;27;45451;-75
2023/01/13 03:22:26;;;;;;;;;0.00;0.00;;;;;11.86;100.00;100897.28;5079022;27;46597;-75
2023/01/13 03:25:16;;;;;;;;;3.00;0.00;;;;;11.99;100.00;100897.78;5102135;27;45390;-75
2023/01/13 03:28:02;;;;;;;;;0.67;0.67;;;;;12.01;100.00;100899.34;5095309;27;45273;-75
2023/01/13 03:30:46;;;;;;;;;0.00;0.00;;;;;12.06;100.00;100899.72;5103080;27;45840;-76
2023/01/13 03:33:20;;;;;;;;;0.67;0.00;;;;;11.91;100.00;100903.13;5100508;27;45333;-75
2023/01/13 03:35:51;;;;;;;;;3.00;1.00;;;;;11.83;100.00;100895.75;5100651;27;45468;-75
2023/01/13 03:38:26;;;;;;;;;2.67;1.00;;;;;12.00;100.00;100896.75;5097951;27;45498;-75
2023/01/13 03:41:03;;;;;;;;;4.00;0.00;;;;;11.83;100.00;100909.38;5082878;27;45543;-75
2023/01/13 03:46:54;;;;;;;;;1.33;1.00;;;;;11.79;100.00;100898.91;5098737;27;45451;-76
2023/01/13 03:49:24;;;;;;;;;0.00;0.00;;;;;11.86;100.00;100891.84;5101026;27;45369;-75
2023/01/13 03:51:57;;;;;;;;;1.00;1.00;;;;;11.79;100.00;100882.59;5085127;27;45392;-75
2023/01/13 03:54:26;;;;;;;;;2.00;0.33;;;;;11.96;100.00;100888.06;5102915;27;45502;-75
2023/01/13 03:57:01;;;;;;;;;1.00;0.33;;;;;11.74;100.00;100891.22;5083497;27;45798;-76
2023/01/13 03:59:32;;;;;;;;;2.00;0.00;;;;;11.68;100.00;100887.22;5103074;27;45400;-75
2023/01/13 04:02:02;;;;;;;;;0.00;0.00;;;;;11.84;100.00;100893.84;5083426;27;45574;-76
2023/01/13 04:04:53;;;;;;;;;0.00;0.00;;;;;12.01;100.00;100891.19;5084248;27;46270;-75
2023/01/13 04:07:56;;;;;;;;;4.33;1.00;;;;;11.87;100.00;100904.47;5084130;27;45386;-75
2023/01/13 04:10:31;;;;;;;;;2.00;0.00;;;;;11.79;100.00;100899.78;5081550;27;45463;-75
2023/01/13 04:13:02;;;;;;;;;2.00;1.33;;;;;11.91;100.00;100914.03;5103076;27;45391;-75
2023/01/13 04:15:35;;;;;;;;;1.33;0.33;;;;;11.97;100.00;100911.56;5084608;27;46272;-75
2023/01/13 04:18:08;;;;;;;;;2.00;1.00;;;;;11.76;100.00;100919.16;5096087;27;45368;-75
2023/01/13 04:20:34;;;;;;;;;2.00;0.33;;;;;11.73;100.00;100918.56;5083749;27;45290;-74
2023/01/13 04:22:59;;;;;;;;;1.67;0.00;;;;;11.74;100.00;100923.88;5084842;27;45666;-75
2023/01/13 04:25:25;;;;;;;;;1.00;1.00;;;;;11.68;100.00;100921.75;5106134;27;45415;-75
2023/01/13 04:27:50;;;;;;;;;1.00;1.00;;;;;11.54;100.00;100925.78;5105664;27;45305;-75
2023/01/13 04:30:15;;;;;;;;;1.00;1.00;;;;;11.30;100.00;100922.75;5085202;27;45253;-74
2023/01/13 04:32:41;;;;;;;;;0.00;0.00;;;;;11.50;100.00;100931.69;5104985;27;45191;-74
2023/01/13 04:35:07;;;;;;;;;1.67;0.67;;;;;11.35;100.00;100935.91;5086969;27;47189;-74
2023/01/13 04:37:32;;;;;;;;;2.00;0.00;;;;;11.43;100.00;100936.03;5086231;27;45690;-74
2023/01/13 04:39:58;;;;;;;;;1.67;1.67;;;;;11.42;100.00;100946.03;5105476;27;45587;-74
2023/01/13 04:42:23;;;;;;;;;2.67;1.67;;;;;11.31;100.00;100941.66;5103845;27;45466;-74
2023/01/13 04:44:48;;;;;;;;;1.67;1.00;;;;;11.40;100.00;100942.59;5098606;27;45427;-75
2023/01/13 04:47:13;;;;;;;;;4.00;2.33;;;;;11.50;100.00;100948.03;5086052;27;45403;-75
2023/01/13 04:49:39;;;;;;;;;5.33;5.33;;;;;11.53;100.00;100955.91;5095608;27;45469;-75
2023/01/13 04:52:05;;;;;;;;;5.00;4.33;;;;;11.42;100.00;100948.75;5103231;27;45512;-77
2023/01/13 04:54:31;;;;;;;;;1.00;1.00;;;;;11.40;100.00;100950.75;5086500;27;45542;-75
2023/01/13 04:56:56;;;;;;;;;1.00;1.00;;;;;11.29;100.00;100957.25;5087515;27;45259;-74
2023/01/13 04:59:21;;;;;;;;;1.33;0.67;;;;;11.27;100.00;100961.13;5099064;27;45266;-75
2023/01/13 05:01:47;;;;;;;;;1.00;1.00;;;;;11.27;100.00;100955.69;5104975;27;45401;-75
2023/01/13 05:04:14;;;;;;;;;1.00;0.00;;;;;11.02;100.00;100961.78;5084821;27;45528;-76
2023/01/13 05:06:40;;;;;;;;;4.00;1.33;;;;;11.17;100.00;100946.72;5102886;27;45317;-75
2023/01/13 05:09:05;;;;;;;;;2.00;0.67;;;;;11.12;100.00;100947.13;5080378;27;45357;-75
2023/01/13 05:17:02;;;;;;;;;1.67;1.00;;;;;11.01;100.00;100982.66;5104769;27;45406;-74
2023/01/13 05:19:32;;;;;;;;;0.67;0.00;;;;;11.16;100.00;100991.22;5105178;27;45323;-74
2023/01/13 05:27:26;;;;;;;;;4.00;1.00;;;;;11.14;100.00;101006.81;5105760;27;45271;-75
2023/01/13 05:29:53;;;;;;;;;0.67;0.00;;;;;11.12;100.00;101006.97;5104553;27;45373;-75
2023/01/13 05:32:19;;;;;;;;;3.00;0.33;;;;;11.16;100.00;101029.31;5082677;27;45451;-74
2023/01/13 05:34:45;;;;;;;;;3.33;2.00;;;;;11.11;100.00;101028.84;5081684;27;46893;-78
2023/01/13 05:37:12;;;;;;;;;0.00;0.00;;;;;11.01;100.00;101020.72;5097813;27;45382;-75
2023/01/13 05:45:06;;;;;;;;;1.00;1.00;;;;;10.96;100.00;101017.56;5099189;27;45784;-75
2023/01/13 05:47:31;;;;;;;;;1.00;1.00;;;;;11.03;100.00;101023.31;5103896;27;45400;-76
2023/01/13 05:49:56;;;;;;;;;4.33;3.00;;;;;11.07;100.00;101024.72;5104312;27;45570;-76
2023/01/13 05:52:22;;;;;;;;;1.67;0.00;;;;;11.04;100.00;101019.56;5105644;27;45205;-76
2023/01/13 05:54:47;;;;;;;;;3.00;1.67;;;;;10.95;100.00;101036.75;5103451;27;45326;-74
2023/01/13 05:57:12;;;;;;;;;2.00;2.00;;;;;10.85;100.00;101031.31;5105066;27;45307;-76
2023/01/13 05:59:38;;;;;;;;;1.00;1.00;;;;;10.82;100.00;101035.16;5103809;27;45445;-76
2023/01/13 06:02:03;;;;;;;;;5.00;2.00;;;;;10.84;100.00;101041.34;5105016;27;45227;-76
2023/01/13 06:04:28;;;;;;;;;2.00;2.00;;;;;10.86;100.00;101042.06;5103672;27;45443;-77
2023/01/13 06:06:54;;;;;;;;;6.33;3.33;;;;;10.92;100.00;101033.31;5085321;27;45184;-76
2023/01/13 06:09:21;;;;;;;;;8.67;4.67;;;;;10.96;100.00;101060.22;5082187;27;45454;-76
2023/01/13 06:11:47;;;;;;;;;14.33;4.33;;;;;10.96;100.00;101055.63;5103212;27;46141;-76
2023/01/13 06:14:12;;;;;;;;;8.00;5.00;;;;;10.92;100.00;101065.94;5098801;27;47017;-76
2023/01/13 06:16:38;;;;;;;;;14.67;14.00;;;;;10.90;100.00;101064.34;5099481;27;45407;-76
2023/01/13 06:19:07;;;;;;;;;19.67;9.67;;;;;10.88;100.00;101072.66;5103555;27;45454;-75
2023/01/13 06:21:35;;;;;;;;;14.67;10.00;;;;;10.79;100.00;101062.66;5102187;27;45625;-76
2023/01/13 06:24:01;;;;;;;;;13.33;7.67;;;;;10.80;100.00;101075.25;5084260;27;46976;-77
2023/01/13 06:26:30;;;;;;;;;4.67;4.67;;;;;10.67;100.00;101082.78;5084228;27;45404;-77
2023/01/13 06:28:55;;;;;;;;;7.67;7.67;;;;;10.84;100.00;101095.69;5085488;27;45391;-76
2023/01/13 06:31:21;;;;;;;;;12.00;10.00;;;;;10.83;100.00;101093.13;5101444;27;45411;-75
2023/01/13 06:33:59;;;;;;;;;12.33;10.67;;;;;10.80;100.00;101094.28;5103063;27;45406;-76
2023/01/13 06:36:30;;;;;;;;;18.67;15.67;;;;;10.89;100.00;101093.41;5102694;27;45545;-74
2023/01/13 06:39:00;;;;;;;;;12.33;11.00;;;;;10.87;100.00;101100.88;5099570;27;45276;-77
2023/01/13 06:44:12;;;;;;;;;11.00;8.33;;;;;10.80;100.00;101105.16;5089321;27;45795;-76
2023/01/13 06:46:38;;;;;;;;;7.67;7.67;;;;;10.80;100.00;101118.75;5097216;27;45411;-75
2023/01/13 06:49:04;;;;;;;;;6.67;4.67;;;;;10.82;100.00;101115.84;5076019;28;45327;-76
2023/01/13 06:51:29;;;;;;;;;8.00;3.00;;;;;10.86;100.00;101101.00;5083281;27;45536;-76
2023/01/13 06:53:54;;;;;;;;;8.00;2.00;;;;;10.76;100.00;101106.41;5094758;27;46493;-76
2023/01/13 06:56:20;;;;;;;;;15.33;10.67;;;;;10.79;100.00;101098.00;5095500;27;45307;-77
2023/01/13 06:58:45;;;;;;;;;21.33;13.00;;;;;10.62;100.00;101086.94;5091700;27;45400;-77
2023/01/13 07:01:10;;;;;;;;;14.33;9.00;;;;;10.80;100.00;101110.59;5075472;27;45357;-77
2023/01/13 07:03:36;;;;;;;;;6.00;2.00;;;;;10.80;100.00;101109.72;5096066;27;45418;-77
2023/01/13 07:06:01;;;;;;;;;11.00;8.00;;;;;10.77;100.00;101112.72;5076262;27;45229;-74
2023/01/13 07:08:27;;;;;;;;;6.00;4.00;;;;;10.92;100.00;101117.59;5083746;27;45274;-77
2023/01/13 07:10:53;;;;;;;;;12.33;7.67;;;;;10.77;100.00;101120.88;5083454;27;47203;-75
2023/01/13 07:16:05;;;;;;;;;17.00;10.00;;;;;10.77;100.00;101135.31;5102811;27;45362;-75
2023/01/13 07:18:33;;;;;;;;;23.33;21.00;;;;;10.68;100.00;101138.00;5082336;27;45488;-74
2023/01/13 07:21:04;;;;;;;;;24.33;18.00;;;;;10.86;100.00;101158.06;5102863;27;45385;-76
2023/01/13 07:23:33;;;;;;;;;22.00;17.00;;;;;11.05;100.00;101154.50;5078756;27;45472;-77
2023/01/13 07:25:59;;;;;;;;;16.67;14.00;;;;;11.14;100.00;101170.00;5098204;27;45470;-75
2023/01/13 07:28:26;;;;;;;;;23.67;15.33;;;;;11.24;100.00;101151.81;5099388;27;45323;-77
2023/01/13 07:30:52;;;;;;;;;12.67;9.33;;;;;11.28;100.00;101153.25;5081371;27;45419;-75
2023/01/13 07:33:17;;;;;;;;;12.33;10.33;;;;;11.14;100.00;101148.22;5098853;27;46006;-75
2023/01/13 07:35:43;;;;;;;;;7.33;6.00;;;;;11.11;100.00;101156.66;5080355;27;47122;-77
2023/01/13 07:38:09;;;;;;;;;7.67;5.00;;;;;11.25;100.00;101169.88;5099634;27;45213;-76
2023/01/13 07:40:35;;;;;;;;;15.33;11.00;;;;;11.20;100.00;101177.56;5099483;27;45589;-76
2023/01/13 07:45:44;;;;;;;;;5.00;3.33;;;;;11.34;100.00;101158.09;5099738;27;45398;-75
2023/01/13 07:48:10;;;;;;;;;8.00;4.00;;;;;11.34;100.00;101160.81;5099798;27;45310;-76
2023/01/13 07:50:35;;;;;;;;;8.67;4.00;;;;;11.31;100.00;101175.59;5099285;27;45386;-76
2023/01/13 07:53:01;;;;;;;;;5.00;4.00;;;;;11.09;100.00;101175.88;5098401;27;45664;-76
2023/01/13 07:55:26;;;;;;;;;9.00;3.00;;;;;11.09;100.00;101184.03;5093662;27;45505;-75
2023/01/13 07:57:51;;;;;;;;;8.33;7.33;;;;;11.11;100.00;101181.13;5085135;27;45377;-76
2023/01/13 08:00:17;;;;;;;;;2.67;1.00;;;;;11.26;100.00;101206.91;5099193;27;45508;-77
2023/01/13 08:02:43;;;;;;;;;3.33;2.00;;;;;11.38;100.00;101205.81;5079093;27;47659;-76
2023/01/13 08:05:08;;;;;;;;;5.00;5.00;;;;;11.26;100.00;101198.75;5089832;27;45266;-74
2023/01/13 08:07:34;;;;;;;;;2.00;2.00;;;;;11.24;100.00;101201.66;5083553;27;45282;-77
2023/01/13 08:10:01;;;;;;;;;10.33;6.00;;;;;11.12;100.00;101207.34;5083317;27;45332;-76
2023/01/13 08:15:11;;;;;;;;;4.33;4.00;;;;;11.19;100.00;101219.38;5101629;27;45266;-78
2023/01/13 08:17:36;;;;;;;;;7.00;5.00;;;;;11.17;100.00;101226.84;5101975;27;45329;-77
2023/01/13 08:20:03;;;;;;;;;7.00;4.00;;;;;11.12;100.00;101210.06;5081587;27;45509;-77
2023/01/13 08:22:31;;;;;;;;;3.00;3.00;;;;;11.20;100.00;101213.78;5078194;27;46544;-77
2023/01/13 08:24:57;;;;;;;;;12.00;9.00;;;;;11.02;100.00;101220.06;5081926;27;45908;-76
2023/01/13 08:27:22;;;;;;;;;7.67;7.67;;;;;11.06;100.00;101208.75;5100187;27;45447;-75
2023/01/13 08:29:48;;;;;;;;;21.00;11.67;;;;;11.06;100.00;101216.06;5090099;27;45362;-78
2023/01/13 08:32:13;;;;;;;;;8.67;4.00;;;;;11.16;100.00;101216.94;5094423;27;45463;-76
2023/01/13 08:34:38;;;;;;;;;3.67;3.33;;;;;11.23;100.00;101226.25;5074637;27;45396;-76
2023/01/13 08:37:04;;;;;;;;;6.33;5.00;;;;;11.25;100.00;101230.53;5103429;27;45456;-76
2023/01/13 08:39:29;;;;;;;;;8.67;7.00;;;;;11.18;100.00;101237.53;5088084;27;45328;-76
2023/01/13 08:41:55;;;;;;;;;7.67;5.00;;;;;11.28;100.00;101240.28;5075838;27;48440;-74
2023/01/13 08:44:26;;;;;;;;;13.00;11.00;;;;;11.26;100.00;101243.16;5098381;27;45321;-76
2023/01/13 08:46:52;;;;;;;;;22.00;12.00;;;;;11.31;100.00;101242.75;5082643;27;45558;-74
2023/01/13 08:49:18;;;;;;;;;11.00;8.00;;;;;11.27;100.00;101238.56;5070036;28;45434;-76
2023/01/13 08:51:44;;;;;;;;;19.33;14.00;;;;;11.24;100.00;101238.88;5095037;27;46910;-75
2023/01/13 08:54:09;;;;;;;;;15.00;15.00;;;;;11.33;100.00;101232.56;5072884;27;45872;-76
2023/01/13 08:56:35;;;;;;;;;19.67;15.33;;;;;11.39;100.00;101237.47;5081337;27;45331;-75
2023/01/13 08:59:00;;;;;;;;;19.67;14.67;;;;;11.45;100.00;101242.31;5081106;28;45683;-74
2023/01/13 09:01:26;;;;;;;;;18.33;11.00;;;;;11.42;100.00;101248.03;5079456;27;46935;-75
2023/01/13 09:03:52;;;;;;;;;14.33;10.00;;;;;11.30;100.00;101250.03;5083500;27;45332;-76
2023/01/13 09:06:17;;;;;;;;;12.00;9.67;;;;;11.43;100.00;101247.03;5100232;27;45367;-75
2023/01/13 09:08:43;;;;;;;;;9.33;7.67;;;;;11.38;100.00;101234.88;5082622;27;45483;-75
2023/01/13 09:14:04;;;;;;;;;16.00;14.33;;;;;11.39;100.00;101253.78;5090645;27;45306;-77
2023/01/13 09:16:29;;;;;;;;;10.33;9.00;;;;;11.37;100.00;101261.22;5102245;27;47218;-75
2023/01/13 09:18:54;;;;;;;;;19.33;15.67;;;;;11.34;100.00;101256.03;5099604;27;45493;-74
2023/01/13 09:21:21;;;;;;;;;8.00;5.00;;;;;11.40;100.00;101266.34;5079762;27;46984;-75
2023/01/13 09:23:47;;;;;;;;;12.33;9.33;;;;;11.52;100.00;101276.13;5088414;27;45355;-77
2023/01/13 09:26:19;;;;;;;;;9.67;7.33;;;;;11.33;100.00;101281.53;5101634;27;45327;-76
2023/01/13 09:28:46;;;;;;;;;4.00;3.67;;;;;11.23;100.00;101288.81;5094348;27;45436;-77
2023/01/13 09:31:11;;;;;;;;;14.67;9.67;;;;;11.37;100.00;101288.41;5082586;27;46991;-76
2023/01/13 09:36:21;;;;;;;;;12.00;9.00;;;;;11.45;100.00;101291.31;5097305;27;45665;-77
2023/01/13 09:38:48;;;;;;;;;11.00;8.00;;;;;11.58;100.00;101291.88;5096063;27;45410;-74
2023/01/13 09:44:59;;;;;;;;;9.00;5.00;;;;;11.34;100.00;101305.00;5057776;27;46564;-75
2023/01/13 09:47:50;;;;;;;;;4.33;2.33;;;;;11.39;100.00;101302.75;5077958;27;46455;-75
2023/01/13 09:50:22;;;;;;;;;8.67;7.00;;;;;11.51;100.00;101293.44;5072811;27;45500;-76
2023/01/13 09:52:48;;;;;;;;;10.00;8.00;;;;;11.47;100.00;101288.44;5096007;27;45529;-76
2023/01/13 09:55:17;;;;;;;;;12.00;11.00;;;;;11.55;100.00;101304.91;5080766;27;45282;-76
2023/01/13 09:57:42;;;;;;;;;14.67;11.00;;;;;11.36;100.00;101313.03;5084299;27;45434;-75
2023/01/13 10:00:16;;;;;;;;;1.00;1.00;;;;;11.31;100.00;101305.31;5091738;27;46893;-76
2023/01/13 10:03:09;;;;;;;;;6.33;2.00;;;;;11.28;100.00;101322.75;5093363;27;48329;-76
2023/01/13 10:05:39;;;;;;;;;3.00;1.00;;;;;11.55;100.00;101316.66;5082364;28;45459;-76
2023/01/13 10:08:14;;;;;;;;;4.67;2.33;;;;;11.48;100.00;101317.34;5091871;27;45512;-77
2023/01/13 10:10:49;;;;;;;;;5.67;3.00;;;;;11.38;100.00;101322.78;5081388;27;46145;-75
2023/01/13 10:13:20;;;;;;;;;3.00;3.00;;;;;11.54;100.00;101317.66;5095311;27;45430;-75
2023/01/13 10:16:10;;;;;;;;;3.67;2.67;;;;;11.43;100.00;101323.22;5099596;27;45429;-75
2023/01/13 10:18:57;;;;;;;;;1.00;1.00;;;;;11.61;100.00;101329.72;5102004;27;45416;-77
2023/01/13 10:21:43;;;;;;;;;7.33;3.00;;;;;11.74;100.00;101339.47;5096904;27;45397;-77
2023/01/13 10:24:24;;;;;;;;;8.00;5.00;;;;;11.55;100.00;101345.72;5081442;27;48417;-75
2023/01/13 10:27:02;;;;;;;;;12.00;6.00;;;;;11.73;100.00;101329.56;5065590;27;45406;-75
2023/01/13 10:29:29;;;;;;;;;3.33;1.00;;;;;11.82;100.00;101336.94;5089539;27;45238;-76
2023/01/13 10:31:57;;;;;;;;;9.33;6.00;;;;;11.84;100.00;101337.63;5095111;27;45310;-75
2023/01/13 10:34:24;;;;;;;;;6.00;3.67;;;;;11.84;100.00;101324.00;5098866;27;46669;-76
2023/01/13 10:37:07;;;;;;;;;5.67;3.00;;;;;11.78;100.00;101324.59;5092012;27;45401;-77
2023/01/13 10:39:39;;;;;;;;;5.67;4.33;;;;;11.86;100.00;101338.34;5088399;27;45588;-75
2023/01/13 10:42:12;;;;;;;;;2.00;2.00;;;;;11.97;100.00;101346.41;5102915;27;45368;-74
2023/01/13 10:44:50;;;;;;;;;17.33;16.67;;;;;12.22;100.00;101355.84;5097297;27;45433;-76
2023/01/13 10:47:29;;;;;;;;;15.33;10.67;;;;;12.41;100.00;101356.72;5100326;27;45453;-76
2023/01/13 10:50:05;;;;;;;;;8.00;5.67;;;;;12.45;100.00;101357.25;5090767;27;45328;-76
2023/01/13 10:52:36;;;;;;;;;3.00;3.00;;;;;12.44;100.00;101360.97;5079801;27;45453;-76
2023/01/13 10:55:04;;;;;;;;;4.67;4.00;;;;;12.16;100.00;101376.34;5081291;27;47140;-74
2023/01/13 10:57:35;;;;;;;;;7.00;3.33;;;;;12.57;100.00;101366.97;5093045;27;45373;-76
2023/01/13 11:00:04;;;;;;;;;4.00;1.00;;;;;12.59;100.00;101369.56;5091640;27;45286;-75
2023/01/13 11:02:34;;;;;;;;;4.00;3.00;;;;;12.72;100.00;101383.75;5102488;27;45472;-75
2023/01/13 11:05:23;;;;;;;;;8.00;5.33;;;;;12.60;100.00;101388.50;5092039;27;45505;-76
2023/01/13 11:07:51;;;;;;;;;5.67;5.67;;;;;12.64;100.00;101394.53;5099347;27;45243;-76
2023/01/13 11:10:25;;;;;;;;;6.00;4.33;;;;;12.35;100.00;101392.69;5091086;27;45292;-75
2023/01/13 11:13:01;;;;;;;;;3.33;2.00;;;;;12.17;100.00;101397.16;5082926;27;45670;-75
2023/01/13 11:16:00;;;;;;;;;4.00;2.00;;;;;12.42;100.00;101388.38;5092808;27;45353;-77
2023/01/13 11:18:31;;;;;;;;;2.00;0.00;;;;;12.21;100.00;101398.56;5092961;27;45450;-75
2023/01/13 11:20:59;;;;;;;;;14.67;9.33;;;;;12.54;100.00;101399.13;5079979;27;45722;-75
2023/01/13 11:23:35;;;;;;;;;9.00;5.00;;;;;12.49;100.00;101403.13;5088294;27;45523;-77
2023/01/13 11:26:11;;;;;;;;;3.00;3.00;;;;;12.65;100.00;101401.69;5097396;27;46104;-75
2023/01/13 11:29:03;;;;;;;;;3.67;3.67;;;;;12.87;100.00;101407.69;5090731;27;45272;-77
2023/01/13 11:32:02;;;;;;;;;9.00;4.00;;;;;12.52;100.00;101414.78;5092511;27;45532;-76
2023/01/13 11:34:32;;;;;;;;;4.00;4.00;;;;;12.73;100.00;101424.50;5078959;27;45424;-75
2023/01/13 11:37:00;;;;;;;;;8.33;7.67;;;;;12.96;100.00;101422.31;5093282;27;45808;-75
2023/01/13 11:39:54;;;;;;;;;5.00;1.33;;;;;12.75;100.00;101419.75;5089638;27;45332;-75
2023/01/13 11:42:45;;;;;;;;;4.00;2.00;;;;;12.84;100.00;101429.81;5098994;27;45464;-76
2023/01/13 11:45:38;;;;;;;;;5.67;3.00;;;;;13.01;100.00;101435.47;5082208;27;45278;-76
2023/01/13 11:48:04;;;;;;;;;4.00;2.00;;;;;13.21;100.00;101431.75;5087441;27;45453;-75
2023/01/13 11:50:39;;;;;;;;;8.33;4.67;;;;;13.34;100.00;101423.22;5077721;27;45580;-76
2023/01/13 11:53:36;;;;;;;;;22.00;22.00;;;;;13.55;100.00;101424.69;5097271;27;45393;-75
2023/01/13 11:56:10;;;;;;;;;4.67;4.33;;;;;13.61;100.00;101431.41;5103126;27;45521;-76
2023/01/13 11:58:49;;;;;;;;;5.67;4.00;;;;;13.67;100.00;101439.00;5082587;27;47823;-76
2023/01/13 12:01:16;;;;;;;;;18.67;12.33;;;;;13.49;100.00;101429.91;5094882;27;45458;-74
2023/01/13 12:04:02;;;;;;;;;2.33;1.33;;;;;13.16;100.00;101431.31;5098049;27;45321;-76
2023/01/13 12:06:36;;;;;;;;;6.00;3.67;;;;;13.12;100.00;101438.06;5097437;27;45335;-74
2023/01/13 12:09:11;;;;;;;;;3.33;3.33;;;;;13.32;100.00;101431.56;5097510;27;46887;-75
2023/01/13 12:14:56;;;;;;;;;5.00;2.00;;;;;13.15;100.00;101433.19;5095538;27;45311;-77
2023/01/13 12:17:29;;;;;;;;;4.00;3.00;;;;;12.68;100.00;101434.13;5081265;28;45381;-75
2023/01/13 12:19:54;;;;;;;;;2.00;0.00;;;;;12.75;100.00;101435.25;5097525;27;46466;-77
2023/01/13 12:22:30;;;;;;;;;5.33;1.67;;;;;12.79;100.00;101434.81;5098863;27;45506;-75